createdAt,value
2019-03-20T00:00:56.393Z,102094.70
2019-03-20T00:03:27.024Z,102092.02
2019-03-20T00:05:58.918Z,102099.01
2019-03-20T00:08:29.876Z,102084.94
2019-03-20T00:11:00.734Z,102091.42
2019-03-20T00:13:31.575Z,102093.38
2019-03-20T00:16:02.443Z,102102.97
2019-03-20T00:18:33.203Z,102086.91
2019-03-20T00:21:03.851Z,102085.47
2019-03-20T00:23:34.708Z,102087.52
2019-03-20T00:26:05.341Z,102081.45
2019-03-20T00:28:36.099Z,102083.59
2019-03-20T00:31:06.765Z,102076.37
2019-03-20T00:33:37.621Z,102074.00
2019-03-20T00:36:08.375Z,102067.27
2019-03-20T00:38:39.116Z,102062.19
2019-03-20T00:41:09.776Z,102066.48
2019-03-20T00:43:40.619Z,102061.48
2019-03-20T00:46:11.388Z,102059.22
2019-03-20T00:48:42.124Z,102055.83
2019-03-20T00:51:12.997Z,102058.70
2019-03-20T00:53:43.853Z,102059.67
2019-03-20T00:56:14.609Z,102056.87
2019-03-20T00:58:45.262Z,102063.69
2019-03-20T01:01:16.524Z,102065.64
2019-03-20T01:03:47.261Z,102058.98
2019-03-20T01:06:19.055Z,102067.89
2019-03-20T01:08:49.400Z,102069.19
2019-03-20T01:11:20.241Z,102067.48
2019-03-20T01:13:51.115Z,102067.56
2019-03-20T01:16:21.869Z,102063.05
2019-03-20T01:18:52.503Z,102060.06
2019-03-20T01:21:23.372Z,102059.53
2019-03-20T01:23:54.227Z,102053.16
2019-03-20T01:26:24.863Z,102056.70
2019-03-20T01:28:54.941Z,102056.67
2019-03-20T01:31:25.497Z,102053.18
2019-03-20T01:33:56.120Z,102052.27
2019-03-20T01:36:26.771Z,102058.42
2019-03-20T01:38:57.633Z,102056.78
2019-03-20T01:41:37.607Z,102056.41
2019-03-20T01:44:00.449Z,102065.39
2019-03-20T01:46:31.103Z,102071.27
2019-03-20T01:49:01.971Z,102074.84
2019-03-20T01:51:32.809Z,102067.63
2019-03-20T01:54:03.583Z,102072.05
2019-03-20T01:56:34.218Z,102073.72
2019-03-20T01:59:04.968Z,102066.82
2019-03-20T02:01:35.876Z,102074.52
2019-03-20T02:04:06.596Z,102071.55
2019-03-20T02:06:38.269Z,102082.34
2019-03-20T02:09:08.720Z,102070.82
2019-03-20T02:11:39.573Z,102077.70
2019-03-20T02:14:10.432Z,102075.59
2019-03-20T02:16:41.188Z,102075.05
2019-03-20T02:19:11.836Z,102072.75
2019-03-20T02:21:42.690Z,102065.73
2019-03-20T02:24:13.549Z,102066.89
2019-03-20T02:26:44.301Z,102074.13
2019-03-20T02:29:14.837Z,102077.11
2019-03-20T02:31:45.708Z,102078.36
2019-03-20T02:34:16.465Z,102075.79
2019-03-20T02:36:47.215Z,102082.26
2019-03-20T02:39:17.868Z,102085.90
2019-03-20T02:41:48.724Z,102078.29
2019-03-20T02:44:19.477Z,102077.90
2019-03-20T02:46:50.236Z,102085.89
2019-03-20T02:49:21.087Z,102082.03
2019-03-20T02:51:51.947Z,102086.94
2019-03-20T02:54:22.681Z,102089.67
2019-03-20T02:56:52.758Z,102092.04
2019-03-20T02:59:23.287Z,102090.34
2019-03-20T03:01:56.493Z,102093.07
2019-03-20T03:04:27.246Z,102090.34
2019-03-20T03:06:59.025Z,102094.77
2019-03-20T03:09:29.351Z,102095.72
2019-03-20T03:12:00.225Z,102103.71
2019-03-20T03:14:31.080Z,102099.09
2019-03-20T03:17:01.815Z,102096.75
2019-03-20T03:19:49.488Z,102092.65
2019-03-20T03:22:20.302Z,102101.27
2019-03-20T03:24:51.190Z,102112.31
2019-03-20T03:27:21.927Z,102117.69
2019-03-20T03:29:52.462Z,102120.83
2019-03-20T03:32:23.337Z,102113.02
2019-03-20T03:34:54.089Z,102113.61
2019-03-20T03:37:24.857Z,102111.08
2019-03-20T03:39:55.372Z,102118.05
2019-03-20T03:42:26.250Z,102119.98
2019-03-20T03:44:57.006Z,102120.53
2019-03-20T03:47:27.738Z,102125.22
2019-03-20T03:49:58.289Z,102131.65
2019-03-20T03:52:29.179Z,102134.77
2019-03-20T03:54:59.933Z,102135.61
2019-03-20T03:57:30.573Z,102143.18
2019-03-20T04:00:01.228Z,102140.25
2019-03-20T04:02:31.985Z,102142.53
2019-03-20T04:05:02.830Z,102146.16
2019-03-20T04:07:34.618Z,102141.63
2019-03-20T04:10:08.330Z,102138.73
2019-03-20T04:12:39.078Z,102140.39
2019-03-20T04:15:16.543Z,102144.83
2019-03-20T04:17:47.037Z,102146.49
2019-03-20T04:20:18.720Z,102150.83
2019-03-20T04:22:49.155Z,102155.27
2019-03-20T04:25:19.791Z,102147.80
2019-03-20T04:27:49.933Z,102154.15
2019-03-20T04:30:20.599Z,102152.69
2019-03-20T04:32:51.353Z,102166.76
2019-03-20T04:35:22.194Z,102167.09
2019-03-20T04:37:52.837Z,102168.27
2019-03-20T04:40:23.589Z,102170.36
2019-03-20T04:42:54.464Z,102172.16
2019-03-20T04:45:25.321Z,102176.14
2019-03-20T04:47:55.958Z,102171.77
2019-03-20T04:50:26.033Z,102182.75
2019-03-20T04:52:56.556Z,102185.03
2019-03-20T04:55:26.611Z,102185.75
2019-03-20T04:57:57.126Z,102190.76
2019-03-20T05:00:27.902Z,102183.56
2019-03-20T05:03:00.976Z,102181.64
2019-03-20T05:05:30.836Z,102192.45
2019-03-20T05:08:02.620Z,102191.08
2019-03-20T05:10:33.370Z,102187.96
2019-03-20T05:13:04.243Z,102192.89
2019-03-20T05:15:34.074Z,102200.66
2019-03-20T05:18:04.615Z,102200.42
2019-03-20T05:20:35.346Z,102189.55
2019-03-20T05:23:08.384Z,102201.63
2019-03-20T05:25:38.300Z,102206.31
2019-03-20T05:28:09.159Z,102203.28
2019-03-20T05:30:39.914Z,102198.50
2019-03-20T05:33:10.563Z,102201.17
2019-03-20T05:35:41.418Z,102200.34
2019-03-20T05:38:12.171Z,102197.50
2019-03-20T05:40:42.924Z,102204.80
2019-03-20T05:43:13.577Z,102202.86
2019-03-20T05:45:44.436Z,102210.58
2019-03-20T05:48:15.070Z,102201.46
2019-03-20T05:50:45.839Z,102215.12
2019-03-20T05:53:16.474Z,102215.61
2019-03-20T05:55:47.226Z,102203.94
2019-03-20T05:58:17.561Z,102211.48
2019-03-20T06:00:47.899Z,102213.63
2019-03-20T06:03:18.263Z,102214.22
2019-03-20T06:05:49.035Z,102211.73
2019-03-20T06:08:20.794Z,102206.42
2019-03-20T06:10:51.565Z,102211.63
2019-03-20T06:13:22.307Z,102215.08
2019-03-20T06:15:53.172Z,102215.64
2019-03-20T06:18:23.909Z,102210.53
2019-03-20T06:20:54.581Z,102217.15
2019-03-20T06:23:25.440Z,102210.95
2019-03-20T06:25:56.296Z,102214.27
2019-03-20T06:28:27.046Z,102216.84
2019-03-20T06:30:57.693Z,102217.56
2019-03-20T06:33:28.551Z,102212.22
2019-03-20T06:35:59.304Z,102215.98
2019-03-20T06:38:30.060Z,102208.39
2019-03-20T06:41:00.912Z,102206.87
2019-03-20T06:43:31.772Z,102209.22
2019-03-20T06:46:02.408Z,102202.23
2019-03-20T06:48:32.585Z,102211.72
2019-03-20T06:51:03.112Z,102207.86
2019-03-20T06:53:33.275Z,102204.07
2019-03-20T06:56:03.802Z,102203.14
2019-03-20T06:58:33.861Z,102201.30
2019-03-20T07:01:16.251Z,102200.98
2019-03-20T07:04:05.263Z,102199.83
2019-03-20T07:06:51.306Z,102194.66
2019-03-20T07:09:51.617Z,102197.53
2019-03-20T07:12:22.253Z,102200.67
2019-03-20T07:14:53.125Z,102194.53
2019-03-20T07:17:23.779Z,102192.23
2019-03-20T07:19:54.897Z,102191.36
2019-03-20T07:22:25.594Z,102188.03
2019-03-20T07:24:56.526Z,102186.61
2019-03-20T07:27:26.998Z,102186.61
2019-03-20T07:29:57.854Z,102194.43
2019-03-20T07:32:30.057Z,102193.73
2019-03-20T07:35:00.587Z,102191.58
2019-03-20T07:37:33.648Z,102192.34
2019-03-20T07:40:04.448Z,102193.89
2019-03-20T07:42:35.307Z,102193.38
2019-03-20T07:45:08.905Z,102187.65
2019-03-20T07:47:39.247Z,102189.89
2019-03-20T07:50:11.535Z,102195.98
2019-03-20T07:52:42.189Z,102193.20
2019-03-20T07:55:12.939Z,102190.67
2019-03-20T07:57:43.818Z,102189.50
2019-03-20T08:00:14.969Z,102190.83
2019-03-20T08:02:45.716Z,102192.98
2019-03-20T08:05:16.468Z,102189.45
2019-03-20T08:07:47.340Z,102184.05
2019-03-20T08:10:20.309Z,102182.39
2019-03-20T08:12:50.792Z,102169.30
2019-03-20T08:15:23.818Z,102173.75
2019-03-20T08:17:54.447Z,102167.77
2019-03-20T08:20:31.645Z,102172.43
2019-03-20T08:23:02.500Z,102174.05
2019-03-20T08:25:33.271Z,102177.34
2019-03-20T08:28:04.009Z,102174.23
2019-03-20T08:30:33.968Z,102172.68
2019-03-20T08:33:04.504Z,102175.28
2019-03-20T08:35:35.145Z,102172.54
2019-03-20T08:38:17.422Z,102172.43
2019-03-20T08:40:40.027Z,102172.92
2019-03-20T08:43:10.889Z,102165.47
2019-03-20T08:45:41.659Z,102173.13
2019-03-20T08:48:12.491Z,102159.44
2019-03-20T08:50:43.255Z,102165.01
2019-03-20T08:53:13.900Z,102153.34
2019-03-20T08:55:44.754Z,102156.52
2019-03-20T08:58:15.511Z,102151.40
2019-03-20T09:00:46.265Z,102153.98
2019-03-20T09:03:17.120Z,102155.67
2019-03-20T09:05:48.080Z,102149.67
2019-03-20T09:08:28.817Z,102150.64
2019-03-20T09:10:52.244Z,102150.84
2019-03-20T09:13:23.000Z,102153.91
2019-03-20T09:15:53.757Z,102157.33
2019-03-20T09:18:23.814Z,102159.72
2019-03-20T09:20:54.339Z,102152.17
2019-03-20T09:23:24.991Z,102154.20
2019-03-20T09:25:55.850Z,102160.22
2019-03-20T09:28:26.601Z,102156.70
2019-03-20T09:30:57.354Z,102145.50
2019-03-20T09:33:28.211Z,102145.74
2019-03-20T09:35:58.968Z,102148.57
2019-03-20T09:38:29.620Z,102146.65
2019-03-20T09:41:00.354Z,102145.58
2019-03-20T09:43:30.797Z,102134.22
2019-03-20T09:46:01.450Z,102135.80
2019-03-20T09:48:32.105Z,102136.05
2019-03-20T09:51:02.184Z,102143.13
2019-03-20T09:53:32.691Z,102141.01
2019-03-20T09:56:03.459Z,102138.59
2019-03-20T09:58:34.320Z,102141.17
2019-03-20T10:01:05.059Z,102130.81
2019-03-20T10:03:35.706Z,102137.12
2019-03-20T10:06:05.784Z,102134.06
2019-03-20T10:08:36.297Z,102142.82
2019-03-20T10:11:08.088Z,102135.41
2019-03-20T10:13:38.723Z,102130.23
2019-03-20T10:16:09.493Z,102124.78
2019-03-20T10:18:40.350Z,102127.73
2019-03-20T10:21:10.984Z,102126.48
2019-03-20T10:23:41.756Z,102121.01
2019-03-20T10:26:12.595Z,102123.38
2019-03-20T10:28:43.261Z,102118.95
2019-03-20T10:31:14.018Z,102118.41
2019-03-20T10:33:44.771Z,102114.49
2019-03-20T10:36:17.529Z,102108.97
2019-03-20T10:38:48.795Z,102115.98
2019-03-20T10:41:19.469Z,102111.23
2019-03-20T10:43:52.259Z,102107.67
2019-03-20T10:46:22.321Z,102108.50
2019-03-20T10:48:52.956Z,102104.53
2019-03-20T10:51:22.923Z,102108.17
2019-03-20T10:53:53.445Z,102100.23
2019-03-20T10:56:24.112Z,102099.68
2019-03-20T10:58:54.866Z,102094.05
2019-03-20T11:01:25.522Z,102086.98
2019-03-20T11:03:56.375Z,102088.27
2019-03-20T11:06:27.227Z,102091.41
2019-03-20T11:08:57.686Z,102087.01
2019-03-20T11:11:29.251Z,102085.00
2019-03-20T11:14:00.004Z,102079.53
2019-03-20T11:16:30.863Z,102078.88
2019-03-20T11:19:01.720Z,102070.98
2019-03-20T11:21:32.570Z,102070.66
2019-03-20T11:24:03.203Z,102073.56
2019-03-20T11:26:33.866Z,102074.41
2019-03-20T11:29:04.529Z,102073.38
2019-03-20T11:31:35.381Z,102069.09
2019-03-20T11:34:06.013Z,102064.94
2019-03-20T11:36:36.791Z,102071.19
2019-03-20T11:39:09.250Z,102059.33
2019-03-20T11:41:39.604Z,102055.69
2019-03-20T11:44:10.481Z,102054.38
2019-03-20T11:46:41.232Z,102051.61
2019-03-20T11:49:11.867Z,102050.17
2019-03-20T11:51:45.607Z,102051.52
2019-03-20T11:54:16.360Z,102041.93
2019-03-20T11:56:47.012Z,102043.77
2019-03-20T11:59:17.874Z,102042.14
2019-03-20T12:01:48.500Z,102037.95
2019-03-20T12:04:19.276Z,102028.05
2019-03-20T12:06:49.936Z,102032.92
2019-03-20T12:09:20.779Z,102037.59
2019-03-20T12:11:51.637Z,102031.34
2019-03-20T12:14:22.492Z,102021.69
2019-03-20T12:16:53.144Z,102026.33
2019-03-20T12:19:24.002Z,102020.57
2019-03-20T12:21:55.043Z,102016.90
2019-03-20T12:24:25.802Z,102017.36
2019-03-20T12:26:56.676Z,102012.89
2019-03-20T12:29:27.526Z,102017.73
2019-03-20T12:31:58.381Z,102019.34
2019-03-20T12:34:29.135Z,102020.39
2019-03-20T12:36:59.788Z,102008.23
2019-03-20T12:39:30.524Z,102006.16
2019-03-20T12:42:01.277Z,102005.63
2019-03-20T12:44:32.053Z,102003.44
2019-03-20T12:47:02.701Z,102004.80
2019-03-20T12:49:33.559Z,102001.72
2019-03-20T12:52:04.417Z,102002.53
2019-03-20T12:54:35.168Z,102001.19
2019-03-20T12:57:05.817Z,102001.61
2019-03-20T12:59:36.674Z,101994.53
2019-03-20T13:02:08.299Z,102000.53
2019-03-20T13:04:38.880Z,101998.69
2019-03-20T13:07:09.652Z,102001.38
2019-03-20T13:09:40.409Z,102002.79
2019-03-20T13:12:12.062Z,102003.55
2019-03-20T13:14:42.525Z,102003.07
2019-03-20T13:17:13.382Z,101989.89
2019-03-20T13:19:44.120Z,101984.27
2019-03-20T13:22:14.993Z,101989.39
2019-03-20T13:24:45.749Z,101981.42
2019-03-20T13:27:16.404Z,101984.32
2019-03-20T13:29:47.237Z,101980.45
2019-03-20T13:32:18.020Z,101976.44
2019-03-20T13:34:48.762Z,101969.56
2019-03-20T13:37:19.401Z,101963.92
2019-03-20T13:39:50.273Z,101960.56
2019-03-20T13:42:21.023Z,101954.64
2019-03-20T13:44:51.881Z,101954.69
2019-03-20T13:47:22.737Z,101955.13
2019-03-20T13:49:53.593Z,101952.78
2019-03-20T13:52:24.225Z,101955.52
2019-03-20T13:54:54.897Z,101954.08
2019-03-20T13:57:25.753Z,101949.46
2019-03-20T13:59:56.507Z,101955.96
2019-03-20T14:02:27.260Z,101950.12
2019-03-20T14:04:57.913Z,101951.14
2019-03-20T14:07:28.766Z,101948.86
2019-03-20T14:09:59.522Z,101951.52
2019-03-20T14:12:33.416Z,101949.23
2019-03-20T14:15:03.261Z,101948.41
2019-03-20T14:17:34.239Z,101958.16
2019-03-20T14:20:08.061Z,101955.72
2019-03-20T14:22:38.799Z,101956.79
2019-03-20T14:25:11.103Z,101946.42
2019-03-20T14:27:41.427Z,101945.66
2019-03-20T14:30:17.784Z,101954.30
2019-03-20T14:32:48.155Z,101951.36
2019-03-20T14:35:18.924Z,101950.53
2019-03-20T14:37:49.719Z,101952.69
2019-03-20T14:40:23.490Z,101956.72
2019-03-20T14:42:54.016Z,101958.51
2019-03-20T14:45:24.808Z,101955.45
2019-03-20T14:47:56.158Z,101955.88
2019-03-20T14:50:31.309Z,101960.25
2019-03-20T14:53:01.673Z,101954.36
2019-03-20T18:51:56.797Z,102162.91
2019-03-20T18:54:27.568Z,102176.08
2019-03-20T18:56:58.325Z,102181.66
2019-03-20T18:59:28.973Z,102184.59
2019-03-20T19:01:59.828Z,102174.55
2019-03-20T19:04:30.590Z,102184.42
2019-03-20T19:07:01.338Z,102180.58
2019-03-20T19:09:32.307Z,102184.67
2019-03-20T19:12:08.522Z,102186.14
2019-03-20T19:14:35.234Z,102178.25
2019-03-20T19:17:05.889Z,102187.59
2019-03-20T19:19:36.745Z,102181.02
2019-03-20T19:22:07.814Z,102182.13
2019-03-20T19:24:38.438Z,102186.22
2019-03-20T19:27:08.407Z,102187.20
2019-03-20T19:29:38.923Z,102194.33
2019-03-20T19:32:09.694Z,102192.34
2019-03-20T19:34:40.430Z,102191.59
2019-03-20T19:37:11.306Z,102192.84
2019-03-20T19:39:44.818Z,102190.31
2019-03-20T19:42:20.223Z,102181.64
2019-03-20T19:44:49.189Z,102182.56
2019-03-20T19:47:20.047Z,102182.42
2019-03-20T19:49:50.799Z,102182.50
2019-03-20T19:52:21.657Z,102187.79
2019-03-20T19:54:53.431Z,102192.95
2019-03-20T19:57:23.881Z,102197.47
2019-03-20T19:59:54.735Z,102191.11
2019-03-20T20:02:25.592Z,102193.87
2019-03-20T20:04:56.229Z,102201.91
2019-03-20T20:07:26.305Z,102201.97
2019-03-20T20:09:56.831Z,102203.63
2019-03-20T20:12:31.390Z,102209.31
2019-03-20T20:14:59.770Z,102202.56
2019-03-20T20:17:30.609Z,102211.78
2019-03-20T20:20:01.383Z,102205.27
2019-03-20T20:22:32.136Z,102207.35
2019-03-20T20:25:02.992Z,102204.67
2019-03-20T20:27:33.748Z,102213.47
2019-03-20T20:30:07.057Z,102210.88
2019-03-20T20:32:37.810Z,102207.70
2019-03-20T20:35:10.098Z,102217.00
2019-03-20T20:37:40.549Z,102211.56
2019-03-20T20:40:29.093Z,102207.72
2019-03-20T20:42:59.949Z,102205.04
2019-03-20T20:45:30.601Z,102211.19
2019-03-20T20:48:01.462Z,102203.34
2019-03-20T20:50:32.222Z,102211.44
2019-03-20T20:53:02.998Z,102210.83
2019-03-20T20:55:33.926Z,102205.75
2019-03-20T20:58:04.781Z,102219.63
2019-03-20T21:00:35.553Z,102208.26
2019-03-20T21:03:06.168Z,102215.93
2019-03-20T21:05:37.450Z,102211.55
2019-03-20T21:08:08.185Z,102210.59
2019-03-20T21:10:38.840Z,102218.44
2019-03-20T21:13:09.711Z,102204.91
2019-03-20T21:15:45.479Z,102216.36
2019-03-20T21:18:35.134Z,102214.06
2019-03-20T21:21:05.908Z,102214.48
2019-03-20T21:23:59.260Z,102210.18
2019-03-20T21:26:35.679Z,102203.47
2019-03-20T21:29:35.340Z,102207.00
2019-03-20T21:32:15.195Z,102211.38
2019-03-20T21:35:22.566Z,102206.05
2019-03-20T21:38:10.805Z,102219.05
2019-03-20T21:41:02.526Z,102209.94
2019-03-20T21:44:00.572Z,102216.64
2019-03-20T21:46:49.528Z,102219.82
2019-03-20T21:49:20.206Z,102213.81
2019-03-20T21:51:50.833Z,102218.44
2019-03-20T21:54:50.632Z,102223.63
2019-03-20T21:57:28.883Z,102227.59
2019-03-20T22:00:14.438Z,102228.78
2019-03-20T22:02:45.499Z,102229.39
2019-03-20T22:05:53.812Z,102226.63
2019-03-20T22:08:24.561Z,102229.31
2019-03-20T22:11:17.609Z,102224.41
2019-03-20T22:13:51.429Z,102229.39
2019-03-20T22:16:43.439Z,102228.19
2019-03-20T22:19:50.503Z,102236.20
2019-03-20T22:22:42.545Z,102227.52
2019-03-20T22:25:19.017Z,102233.44
2019-03-20T22:27:55.591Z,102240.41
2019-03-20T22:30:26.261Z,102238.42
2019-03-20T22:33:05.797Z,102251.41
2019-03-20T22:35:39.722Z,102252.19
2019-03-20T22:38:13.561Z,102255.22
2019-03-20T22:41:05.487Z,102257.45
2019-03-20T22:43:40.842Z,102258.58
2019-03-20T22:46:31.537Z,102259.85
2019-03-20T22:49:06.407Z,102259.08
2019-03-20T22:52:01.375Z,102257.70
2019-03-20T22:54:43.381Z,102249.78
2019-03-20T22:57:44.509Z,102256.52
2019-03-20T23:00:18.564Z,102258.92
2019-03-20T23:02:52.040Z,102260.36
2019-03-20T23:05:24.337Z,102267.10
2019-03-20T23:07:55.097Z,102268.80
2019-03-20T23:10:25.744Z,102269.33
2019-03-20T23:12:56.604Z,102265.79
2019-03-20T23:15:27.235Z,102264.95
2019-03-20T23:17:58.008Z,102269.41
2019-03-20T23:20:29.253Z,102267.34
2019-03-20T23:23:00.033Z,102257.46
2019-03-20T23:25:30.865Z,102265.97
2019-03-20T23:28:01.742Z,102264.66
2019-03-20T23:30:34.214Z,102260.11
2019-03-20T23:33:04.778Z,102255.62
2019-03-20T23:35:34.635Z,102251.83
2019-03-20T23:38:05.162Z,102252.43
2019-03-20T23:40:36.208Z,102248.37
2019-03-20T23:43:10.289Z,102244.77
2019-03-20T23:45:40.986Z,102237.53
2019-03-20T23:48:24.851Z,102235.56
2019-03-20T23:51:07.570Z,102232.47
2019-03-20T23:53:39.119Z,102227.63
2019-03-20T23:56:09.898Z,102226.61
2019-03-20T23:58:41.551Z,102230.98
